Aviation Digital Data Service (ADDS)

Output produced by METARs form (1017 UTC 19 April 2014)
found at http://aviationweather.gov/adds/metars/
 
KMGW 190520Z 1906/2006 00000KT P6SM OVC250 
     FM191400 03006KT P6SM SCT250